Time;durP1;ratioP1;P1;durP2;ratioP2;P2;SDS_P1;SDS_P2;PMS_P1;PMS_P2;Temp;Humidity;BMP_temperature;BMP_pressure;BME280_temperature;BME280_humidity;BME280_pressure;Samples;Min_cycle;Max_cycle;Signal;HPM_P1;HPM_P2
2021/07/20 00:01:26;;;;;;;14.23;9.18;;;18.20;99.90;;;;;;4147514;28;20289;-71
2021/07/20 00:03:26;;;;;;;14.35;8.88;;;18.10;99.90;;;;;;4141667;28;20072;-71
2021/07/20 00:05:28;;;;;;;13.20;8.25;;;18.00;99.90;;;;;;4146784;28;20049;-72
2021/07/20 00:07:28;;;;;;;15.18;9.48;;;18.00;99.90;;;;;;4131055;28;20065;-71
2021/07/20 00:09:29;;;;;;;13.25;8.85;;;17.90;99.90;;;;;;4145555;28;20240;-72
2021/07/20 00:11:30;;;;;;;13.02;8.48;;;17.90;99.90;;;;;;4147902;28;20549;-71
2021/07/20 00:13:30;;;;;;;13.77;8.20;;;17.80;99.90;;;;;;4145050;28;20390;-72
2021/07/20 00:15:31;;;;;;;12.65;8.40;;;17.80;99.90;;;;;;4142635;28;20054;-72
2021/07/20 00:17:32;;;;;;;13.63;8.85;;;17.70;99.90;;;;;;4146254;28;20038;-72
2021/07/20 00:19:33;;;;;;;14.93;8.63;;;17.70;99.90;;;;;;4127829;28;20030;-72
2021/07/20 00:21:33;;;;;;;13.95;8.63;;;17.70;99.90;;;;;;4142396;28;20478;-72
2021/07/20 00:23:35;;;;;;;16.13;9.15;;;17.70;99.90;;;;;;4145181;28;20045;-71
2021/07/20 00:25:36;;;;;;;12.75;8.60;;;17.70;99.90;;;;;;4144004;28;20087;-72
2021/07/20 00:27:37;;;;;;;13.93;8.93;;;17.70;99.90;;;;;;4142584;28;20041;-72
2021/07/20 00:29:38;;;;;;;13.68;8.75;;;17.70;99.90;;;;;;4149796;28;20049;-72
2021/07/20 00:31:39;;;;;;;15.57;9.57;;;17.70;99.90;;;;;;4129191;28;20483;-72
2021/07/20 00:33:39;;;;;;;16.25;8.88;;;17.60;99.90;;;;;;4145266;28;20331;-72
2021/07/20 00:35:40;;;;;;;12.30;8.40;;;17.60;99.90;;;;;;4147867;28;20121;-72
2021/07/20 00:37:41;;;;;;;16.15;10.20;;;17.60;99.90;;;;;;4144065;28;20041;-72
2021/07/20 00:39:42;;;;;;;14.75;8.82;;;17.60;99.90;;;;;;4137596;28;20038;-71
2021/07/20 00:41:43;;;;;;;14.25;8.90;;;17.50;99.90;;;;;;4143681;28;20053;-72
2021/07/20 00:43:43;;;;;;;14.05;8.50;;;17.50;99.90;;;;;;4140288;28;20038;-71
2021/07/20 00:45:44;;;;;;;13.55;8.15;;;17.50;99.90;;;;;;4134154;28;20096;-72
2021/07/20 00:47:46;;;;;;;13.20;8.40;;;17.50;99.90;;;;;;4132567;28;20058;-72
2021/07/20 00:49:48;;;;;;;13.85;8.88;;;17.50;99.90;;;;;;4138000;28;20038;-72
2021/07/20 00:51:48;;;;;;;13.68;8.77;;;17.50;99.90;;;;;;4143184;28;20079;-72
2021/07/20 00:53:50;;;;;;;14.23;8.73;;;17.50;99.90;;;;;;4145636;28;20128;-72
2021/07/20 00:55:51;;;;;;;14.10;9.00;;;17.50;99.90;;;;;;4141705;28;20453;-72
2021/07/20 00:57:54;;;;;;;13.32;8.18;;;17.50;99.90;;;;;;4140839;28;20034;-72
2021/07/20 00:59:56;;;;;;;12.07;8.45;;;17.50;99.90;;;;;;4147665;28;20242;-72
2021/07/20 01:01:57;;;;;;;13.40;8.48;;;17.50;99.90;;;;;;4122883;28;20030;-72
2021/07/20 01:03:58;;;;;;;13.38;8.55;;;17.60;99.90;;;;;;4123744;28;20426;-72
2021/07/20 01:06:01;;;;;;;16.05;9.35;;;17.60;99.90;;;;;;4150559;28;20083;-72
2021/07/20 01:08:06;;;;;;;15.15;9.15;;;17.60;99.90;;;;;;4142214;28;20165;-72
2021/07/20 01:10:08;;;;;;;15.68;9.80;;;17.60;99.90;;;;;;4132708;28;20521;-72
2021/07/20 01:12:10;;;;;;;15.63;10.10;;;17.60;99.90;;;;;;4144649;28;20486;-72
2021/07/20 01:14:11;;;;;;;13.95;8.82;;;17.60;99.90;;;;;;4140719;28;20042;-73
2021/07/20 01:16:13;;;;;;;14.25;9.13;;;17.50;99.90;;;;;;4141907;28;20088;-72
2021/07/20 01:18:14;;;;;;;15.50;9.90;;;17.50;99.90;;;;;;4128299;28;20034;-72
2021/07/20 01:20:19;;;;;;;15.40;9.30;;;17.40;99.90;;;;;;4112090;28;20160;-72
2021/07/20 01:22:28;;;;;;;19.13;9.98;;;17.40;99.90;;;;;;4148673;28;20060;-72
2021/07/20 01:24:29;;;;;;;14.52;9.45;;;17.40;99.90;;;;;;4145195;28;20042;-72
2021/07/20 01:26:29;;;;;;;15.70;9.88;;;17.40;99.90;;;;;;4145257;28;20120;-72
2021/07/20 01:28:32;;;;;;;13.70;9.20;;;17.30;99.90;;;;;;4146061;28;20465;-72
2021/07/20 01:30:35;;;;;;;14.82;9.55;;;17.30;99.90;;;;;;4145582;28;20563;-72
2021/07/20 01:32:36;;;;;;;16.40;9.82;;;17.30;99.90;;;;;;4124564;28;20041;-72
2021/07/20 01:34:37;;;;;;;15.38;9.30;;;17.30;99.90;;;;;;4147541;28;20034;-72
2021/07/20 01:36:40;;;;;;;13.38;9.15;;;17.30;99.90;;;;;;4146469;28;20409;-72
2021/07/20 01:38:42;;;;;;;14.50;9.02;;;17.30;99.90;;;;;;4149520;28;20486;-72
2021/07/20 01:40:44;;;;;;;15.60;9.45;;;17.30;99.90;;;;;;4146071;28;20069;-72
2021/07/20 01:42:45;;;;;;;16.65;10.30;;;17.30;99.90;;;;;;4146190;28;20129;-72
2021/07/20 01:44:47;;;;;;;17.48;10.55;;;17.20;99.90;;;;;;4142664;28;20160;-72
2021/07/20 01:46:51;;;;;;;16.02;9.27;;;17.20;99.90;;;;;;4149907;28;20064;-72
2021/07/20 01:48:53;;;;;;;12.90;8.93;;;17.20;99.90;;;;;;4140767;28;20073;-72
2021/07/20 01:50:55;;;;;;;16.33;10.05;;;17.20;99.90;;;;;;4145750;28;20041;-72
2021/07/20 01:52:57;;;;;;;13.88;9.32;;;17.30;99.90;;;;;;4138239;28;20038;-72
2021/07/20 01:54:59;;;;;;;16.77;10.15;;;17.20;99.90;;;;;;4153815;28;20068;-72
2021/07/20 01:56:59;;;;;;;15.00;9.48;;;17.20;99.90;;;;;;4147765;28;20061;-72
2021/07/20 01:59:00;;;;;;;13.27;8.75;;;17.20;99.90;;;;;;4146394;28;20096;-72
2021/07/20 02:01:01;;;;;;;15.10;8.57;;;17.20;99.90;;;;;;4150562;28;20244;-72
2021/07/20 02:09:53;;;;;;;15.80;10.13;;;17.10;99.90;;;;;;4153427;28;20121;-72
2021/07/20 02:11:54;;;;;;;16.23;10.57;;;17.10;99.90;;;;;;4136289;28;20720;-72
2021/07/20 02:14:00;;;;;;;15.80;9.40;;;17.00;99.90;;;;;;4143806;28;20038;-72
2021/07/20 02:16:01;;;;;;;17.45;10.98;;;17.00;99.90;;;;;;4141799;28;20121;-72
2021/07/20 02:18:02;;;;;;;17.98;10.32;;;17.00;99.90;;;;;;4130305;28;20039;-72
2021/07/20 02:20:12;;;;;;;16.17;9.18;;;17.00;99.90;;;;;;4131694;28;20630;-72
2021/07/20 02:22:18;;;;;;;17.42;9.70;;;17.00;99.90;;;;;;4140265;28;20054;-72
2021/07/20 02:24:23;;;;;;;13.38;8.95;;;17.00;99.90;;;;;;4146961;28;20050;-72
2021/07/20 02:26:25;;;;;;;18.40;10.13;;;17.00;99.90;;;;;;4143746;28;20029;-72
2021/07/20 02:28:27;;;;;;;16.00;10.25;;;17.00;99.90;;;;;;4151148;28;20040;-72
2021/07/20 02:30:28;;;;;;;17.48;10.23;;;17.00;99.90;;;;;;4149088;28;20391;-72
2021/07/20 02:32:29;;;;;;;15.15;9.98;;;17.00;99.90;;;;;;4145104;28;20061;-72
2021/07/20 02:34:33;;;;;;;17.95;10.57;;;17.00;99.90;;;;;;4140222;28;20096;-72
2021/07/20 02:36:39;;;;;;;16.58;10.50;;;16.90;99.90;;;;;;4150992;28;20026;-72
2021/07/20 02:38:41;;;;;;;16.33;10.23;;;16.90;99.90;;;;;;4148545;28;20123;-72
2021/07/20 02:40:43;;;;;;;18.10;10.77;;;16.90;99.90;;;;;;4143007;28;20398;-72
2021/07/20 02:42:46;;;;;;;15.90;9.88;;;16.90;99.90;;;;;;4147021;28;20363;-72
2021/07/20 02:44:48;;;;;;;18.95;10.90;;;16.90;99.90;;;;;;4151133;28;20049;-72
2021/07/20 02:46:49;;;;;;;15.73;10.27;;;16.90;99.90;;;;;;4145014;28;20034;-72
2021/07/20 02:48:51;;;;;;;16.08;9.88;;;16.80;99.90;;;;;;4124849;28;20068;-72
2021/07/20 02:50:53;;;;;;;17.83;9.93;;;16.80;99.90;;;;;;4152187;28;20034;-72
2021/07/20 02:52:55;;;;;;;18.25;11.50;;;16.80;99.90;;;;;;4152090;28;20545;-72
2021/07/20 02:54:58;;;;;;;17.48;11.00;;;16.80;99.90;;;;;;4130138;28;20132;-72
2021/07/20 02:56:59;;;;;;;24.38;10.25;;;16.70;99.90;;;;;;4145845;28;20045;-72
2021/07/20 02:59:03;;;;;;;18.10;10.68;;;16.80;99.90;;;;;;4149517;28;20375;-72
2021/07/20 03:01:06;;;;;;;16.13;9.88;;;16.70;99.90;;;;;;4150492;28;20414;-72
2021/07/20 03:03:09;;;;;;;;;;;16.70;99.90;;;;;;4143798;28;20034;-72
2021/07/20 03:05:10;;;;;;;16.30;10.95;;;16.70;99.90;;;;;;4137258;28;19925;-72
2021/07/20 03:07:15;;;;;;;20.45;11.38;;;16.70;99.90;;;;;;4129409;28;20109;-72
2021/07/20 03:09:18;;;;;;;15.98;10.48;;;16.70;99.90;;;;;;4133499;28;20553;-72
2021/07/20 03:11:20;;;;;;;16.15;9.77;;;16.70;99.90;;;;;;4149449;28;20874;-72
2021/07/20 03:13:24;;;;;;;18.48;10.70;;;16.70;99.90;;;;;;4125159;28;20646;-72
2021/07/20 03:15:25;;;;;;;15.43;10.20;;;16.70;99.90;;;;;;4146924;28;20042;-72
2021/07/20 03:17:27;;;;;;;14.48;9.75;;;16.70;99.90;;;;;;4129672;28;20479;-72
2021/07/20 03:19:30;;;;;;;17.25;10.85;;;16.70;99.90;;;;;;4128083;28;20038;-72
2021/07/20 03:21:32;;;;;;;15.25;9.98;;;16.80;99.90;;;;;;4124751;28;20557;-72
2021/07/20 03:23:34;;;;;;;17.92;10.55;;;16.80;99.90;;;;;;4127016;28;20291;-72
2021/07/20 03:25:35;;;;;;;17.53;10.53;;;16.80;99.90;;;;;;4146422;28;20688;-72
2021/07/20 03:27:38;;;;;;;17.92;10.93;;;16.80;99.90;;;;;;4146858;28;20494;-72
2021/07/20 03:29:43;;;;;;;14.93;9.88;;;16.80;99.90;;;;;;4142948;28;20050;-72
2021/07/20 03:31:45;;;;;;;21.17;11.82;;;16.80;99.90;;;;;;4146837;28;20048;-72
2021/07/20 03:33:46;;;;;;;18.23;11.38;;;16.80;99.90;;;;;;4149909;28;20061;-72
2021/07/20 03:35:48;;;;;;;17.13;10.73;;;16.70;99.90;;;;;;4149407;28;20040;-72
2021/07/20 03:37:49;;;;;;;18.17;11.20;;;16.70;99.90;;;;;;4144420;28;20046;-72
2021/07/20 03:39:53;;;;;;;17.00;10.75;;;16.70;99.90;;;;;;4146832;28;20045;-72
2021/07/20 03:41:53;;;;;;;17.35;11.25;;;16.60;99.90;;;;;;4127940;28;20118;-72
2021/07/20 03:43:55;;;;;;;16.52;11.45;;;16.60;99.90;;;;;;4143068;28;20064;-72
2021/07/20 03:45:57;;;;;;;20.17;12.23;;;16.60;99.90;;;;;;4146246;28;20053;-72
2021/07/20 03:47:58;;;;;;;18.13;10.73;;;16.50;99.90;;;;;;4147800;28;20061;-72
2021/07/20 03:49:59;;;;;;;20.30;11.80;;;16.50;99.90;;;;;;4143277;28;20331;-72
2021/07/20 03:52:01;;;;;;;22.40;12.68;;;16.50;99.90;;;;;;4129583;28;20061;-72
2021/07/20 03:54:03;;;;;;;18.77;11.88;;;16.50;99.90;;;;;;4149951;28;20164;-72
2021/07/20 03:56:05;;;;;;;21.30;12.82;;;16.40;99.90;;;;;;4145715;28;20030;-72
2021/07/20 03:58:06;;;;;;;21.73;12.98;;;16.40;99.90;;;;;;4149043;28;20030;-72
2021/07/20 04:00:08;;;;;;;24.75;12.85;;;16.30;99.90;;;;;;4129133;28;20045;-72
2021/07/20 04:02:10;;;;;;;20.67;11.88;;;16.20;99.90;;;;;;4145003;28;20041;-72
2021/07/20 04:04:16;;;;;;;19.93;11.60;;;16.20;99.90;;;;;;4141233;28;20103;-72
2021/07/20 04:06:21;;;;;;;18.73;11.68;;;16.20;99.90;;;;;;4150932;28;20863;-72
2021/07/20 04:08:22;;;;;;;22.40;13.20;;;16.10;99.90;;;;;;4146971;28;20113;-72
2021/07/20 04:10:23;;;;;;;22.50;12.83;;;16.10;99.90;;;;;;4145613;28;20038;-72
2021/07/20 04:12:24;;;;;;;25.15;11.90;;;16.10;99.90;;;;;;4146628;28;20116;-72
2021/07/20 04:14:26;;;;;;;19.50;11.68;;;16.00;99.90;;;;;;4144031;28;20033;-72
2021/07/20 04:16:28;;;;;;;19.75;11.73;;;16.10;99.90;;;;;;4128050;28;20038;-72
2021/07/20 04:18:30;;;;;;;20.23;12.68;;;16.00;99.90;;;;;;4147022;28;20037;-72
2021/07/20 04:20:31;;;;;;;19.40;12.57;;;16.10;99.90;;;;;;4149052;28;20131;-72
2021/07/20 04:22:32;;;;;;;18.15;11.43;;;16.10;99.90;;;;;;4115387;28;20073;-72
2021/07/20 04:24:33;;;;;;;19.23;11.60;;;16.10;99.90;;;;;;4123948;28;20069;-72
2021/07/20 04:26:34;;;;;;;17.75;10.73;;;16.10;99.90;;;;;;4145302;28;20092;-72
2021/07/20 04:28:34;;;;;;;19.02;11.50;;;16.20;99.90;;;;;;4123918;28;20030;-72
2021/07/20 04:30:40;;;;;;;17.10;10.98;;;16.20;99.90;;;;;;4152283;28;20405;-72
2021/07/20 04:32:46;;;;;;;20.83;12.02;;;16.20;99.90;;;;;;4145894;28;20038;-72
2021/07/20 04:34:47;;;;;;;20.63;11.52;;;16.30;99.90;;;;;;4129926;28;20192;-72
2021/07/20 04:36:49;;;;;;;18.67;11.13;;;16.30;99.90;;;;;;4146369;28;20038;-72
2021/07/20 04:38:51;;;;;;;21.00;12.48;;;16.40;99.90;;;;;;4141537;28;20449;-72
2021/07/20 04:40:53;;;;;;;18.08;11.07;;;16.40;99.90;;;;;;4123943;28;20177;-72
2021/07/20 04:42:54;;;;;;;18.30;11.50;;;16.40;99.90;;;;;;4127547;28;20042;-72
2021/07/20 04:44:54;;;;;;;18.42;11.25;;;16.50;99.90;;;;;;4145075;28;20065;-72
2021/07/20 04:46:55;;;;;;;19.63;12.38;;;16.50;99.90;;;;;;4140477;28;20046;-72
2021/07/20 04:48:56;;;;;;;19.48;11.95;;;16.50;99.90;;;;;;4143855;28;20125;-72
2021/07/20 04:50:57;;;;;;;16.58;10.80;;;16.50;99.90;;;;;;4145444;28;20033;-73
2021/07/20 04:52:59;;;;;;;20.52;11.55;;;16.60;99.90;;;;;;4153423;28;20117;-72
2021/07/20 04:55:02;;;;;;;17.73;11.15;;;16.60;99.90;;;;;;4138643;28;20050;-72
2021/07/20 04:57:03;;;;;;;19.88;12.63;;;16.60;99.90;;;;;;4143572;28;20045;-72
2021/07/20 04:59:04;;;;;;;23.50;13.10;;;16.60;99.90;;;;;;4127532;28;20038;-72
2021/07/20 05:01:05;;;;;;;25.33;13.85;;;16.60;99.90;;;;;;4144939;28;20479;-72
2021/07/20 05:03:06;;;;;;;22.17;13.63;;;16.50;99.90;;;;;;4145399;28;20069;-72
2021/07/20 05:05:08;;;;;;;22.48;12.93;;;16.50;99.90;;;;;;4141951;28;20103;-72
2021/07/20 05:07:12;;;;;;;21.98;13.07;;;16.50;99.90;;;;;;4148239;28;20116;-72
2021/07/20 05:09:13;;;;;;;24.17;13.20;;;16.50;99.90;;;;;;4141076;28;20129;-72
2021/07/20 05:11:14;;;;;;;24.52;14.07;;;16.50;99.90;;;;;;4123848;28;20037;-72
2021/07/20 05:13:17;;;;;;;24.60;15.27;;;16.50;99.90;;;;;;4152657;28;20045;-72
2021/07/20 05:15:19;;;;;;;25.88;14.95;;;16.50;99.90;;;;;;4125831;28;20133;-72
2021/07/20 05:17:21;;;;;;;25.33;15.25;;;16.50;99.90;;;;;;4133959;28;20303;-72
2021/07/20 05:19:23;;;;;;;24.60;13.75;;;16.40;99.90;;;;;;4147717;28;20417;-72
2021/07/20 05:21:24;;;;;;;24.48;13.48;;;16.40;99.90;;;;;;4149197;28;20036;-72
2021/07/20 05:23:26;;;;;;;21.45;12.40;;;16.50;99.90;;;;;;4130811;28;20045;-72
2021/07/20 05:25:27;;;;;;;25.92;13.48;;;16.50;99.90;;;;;;4138815;28;20046;-72
2021/07/20 05:27:34;;;;;;;24.92;13.93;;;16.50;99.90;;;;;;4144589;28;20045;-72
2021/07/20 05:29:36;;;;;;;21.90;13.30;;;16.50;99.90;;;;;;4145390;28;20095;-72
2021/07/20 05:31:39;;;;;;;23.83;13.68;;;16.50;99.90;;;;;;4132039;28;20037;-72
2021/07/20 05:33:40;;;;;;;22.52;13.95;;;16.50;99.90;;;;;;4144373;28;20057;-72
2021/07/20 05:35:41;;;;;;;24.47;14.50;;;16.60;99.90;;;;;;4142793;28;20030;-72
2021/07/20 05:37:43;;;;;;;22.48;13.50;;;16.60;99.90;;;;;;4147362;28;20397;-72
2021/07/20 05:39:43;;;;;;;22.65;13.88;;;16.60;99.90;;;;;;4145225;28;20084;-72
2021/07/20 05:41:44;;;;;;;24.27;14.45;;;16.60;99.90;;;;;;4124080;28;20361;-72
2021/07/20 05:43:45;;;;;;;25.10;14.20;;;16.70;99.90;;;;;;4125457;28;20048;-72
2021/07/20 05:45:46;;;;;;;26.60;14.63;;;16.70;99.90;;;;;;4149102;28;20366;-72
2021/07/20 05:47:49;;;;;;;27.80;14.88;;;16.70;99.90;;;;;;4121667;28;20057;-72
2021/07/20 05:49:50;;;;;;;24.25;13.88;;;16.70;99.90;;;;;;4146553;28;20371;-72
2021/07/20 05:51:51;;;;;;;24.98;14.75;;;16.80;99.90;;;;;;4151546;28;20426;-72
2021/07/20 05:53:53;;;;;;;24.67;14.57;;;16.70;99.90;;;;;;4143554;28;20456;-72
2021/07/20 05:55:59;;;;;;;24.50;14.50;;;16.80;99.90;;;;;;4144778;28;20168;-72
2021/07/20 05:58:00;;;;;;;22.30;14.35;;;16.80;99.90;;;;;;4142883;28;20110;-72
2021/07/20 06:00:06;;;;;;;30.45;14.13;;;16.90;99.90;;;;;;4142261;28;20491;-72
2021/07/20 06:02:10;;;;;;;23.15;14.55;;;16.90;99.90;;;;;;4138535;28;20030;-72
2021/07/20 06:04:12;;;;;;;23.25;13.52;;;16.90;99.90;;;;;;4135052;28;20041;-72
2021/07/20 06:06:12;;;;;;;22.30;13.43;;;17.00;99.90;;;;;;4137626;28;20070;-72
2021/07/20 06:08:15;;;;;;;25.33;14.68;;;17.10;99.90;;;;;;4137915;28;20300;-72
2021/07/20 06:10:20;;;;;;;22.55;13.73;;;17.20;99.90;;;;;;4136815;28;20045;-72
2021/07/20 06:12:21;;;;;;;24.27;13.23;;;17.50;99.90;;;;;;4119730;28;20227;-72
2021/07/20 06:14:23;;;;;;;23.55;13.70;;;17.80;99.90;;;;;;4101736;28;20135;-73
2021/07/20 06:16:26;;;;;;;24.55;12.88;;;18.00;99.90;;;;;;4138559;28;20030;-73
2021/07/20 06:18:26;;;;;;;23.00;13.63;;;18.40;99.90;;;;;;4124962;28;20486;-73
2021/07/20 06:20:27;;;;;;;29.27;13.50;;;18.60;99.90;;;;;;4142204;28;20121;-73
2021/07/20 06:22:34;;;;;;;22.20;12.95;;;18.90;99.90;;;;;;4137081;28;20080;-73
2021/07/20 06:24:41;;;;;;;18.80;12.23;;;19.20;99.90;;;;;;4123264;28;20108;-73
2021/07/20 06:26:43;;;;;;;19.88;12.02;;;19.50;99.90;;;;;;4136195;28;20106;-73
2021/07/20 06:28:44;;;;;;;18.95;11.60;;;19.80;99.90;;;;;;4119954;28;20023;-73
2021/07/20 06:30:45;;;;;;;18.10;11.40;;;20.20;99.90;;;;;;4133618;28;20034;-73
2021/07/20 06:32:47;;;;;;;21.08;13.32;;;20.40;99.90;;;;;;4123385;28;20042;-73
2021/07/20 06:34:49;;;;;;;18.90;12.30;;;20.70;99.90;;;;;;4143093;28;20114;-73
2021/07/20 06:36:49;;;;;;;17.95;10.68;;;21.00;99.90;;;;;;4135835;28;20030;-73
2021/07/20 06:38:53;;;;;;;18.48;10.95;;;21.20;99.90;;;;;;4139582;28;20048;-73
2021/07/20 06:40:55;;;;;;;19.35;11.60;;;21.30;99.90;;;;;;4137295;28;20033;-73
2021/07/20 06:42:57;;;;;;;16.92;11.13;;;21.40;99.90;;;;;;4140133;28;20227;-73
2021/07/20 06:44:58;;;;;;;14.30;9.20;;;21.40;99.90;;;;;;4144639;28;20379;-73
2021/07/20 06:47:00;;;;;;;16.10;10.43;;;21.40;99.90;;;;;;4142514;28;20482;-73
2021/07/20 06:49:02;;;;;;;16.20;10.32;;;21.40;99.90;;;;;;4142867;28;20669;-73
2021/07/20 06:51:03;;;;;;;16.67;10.00;;;21.30;99.90;;;;;;4145233;28;20127;-73
2021/07/20 06:53:03;;;;;;;17.85;9.35;;;21.30;99.90;;;;;;4146836;28;20276;-73
2021/07/20 06:55:06;;;;;;;15.65;9.80;;;21.20;99.90;;;;;;4145083;28;20293;-75
2021/07/20 06:57:10;;;;;;;14.95;9.30;;;21.10;99.90;;;;;;4138217;28;20321;-76
2021/07/20 06:59:13;;;;;;;15.07;9.27;;;21.10;99.90;;;;;;4118728;28;20097;-76
2021/07/20 07:01:17;;;;;;;14.68;7.85;;;21.00;99.90;;;;;;4129542;28;20038;-76
2021/07/20 07:03:22;;;;;;;14.80;9.20;;;20.90;99.90;;;;;;4133268;28;20044;-75
2021/07/20 07:05:25;;;;;;;14.25;9.15;;;20.80;99.90;;;;;;4112175;28;20045;-76
2021/07/20 07:07:27;;;;;;;12.93;8.48;;;20.70;99.90;;;;;;4098886;28;20043;-76
2021/07/20 07:09:30;;;;;;;13.25;8.27;;;20.60;99.90;;;;;;4114452;28;20042;-76
2021/07/20 07:11:31;;;;;;;14.65;8.32;;;20.60;99.90;;;;;;4131437;28;20038;-76
2021/07/20 07:13:34;;;;;;;13.20;8.57;;;20.60;99.90;;;;;;4131667;28;20431;-76
2021/07/20 07:15:37;;;;;;;15.13;9.63;;;20.50;99.90;;;;;;4129588;28;20042;-76
2021/07/20 07:17:38;;;;;;;15.00;8.88;;;20.40;99.90;;;;;;4127193;28;20352;-75
2021/07/20 07:19:39;;;;;;;13.00;8.90;;;20.30;99.90;;;;;;4133253;28;20038;-76
2021/07/20 07:21:44;;;;;;;16.27;8.18;;;20.20;99.90;;;;;;4132869;28;20042;-76
2021/07/20 07:23:48;;;;;;;13.40;7.95;;;20.20;99.90;;;;;;4131624;28;20611;-75
2021/07/20 07:25:50;;;;;;;13.80;8.35;;;20.20;99.90;;;;;;4130359;28;20037;-75
2021/07/20 07:27:53;;;;;;;14.98;8.95;;;20.20;99.90;;;;;;4116368;28;20026;-75
2021/07/20 07:29:56;;;;;;;14.52;8.40;;;20.10;99.90;;;;;;4129008;28;20065;-75
2021/07/20 07:31:57;;;;;;;13.95;8.38;;;20.10;99.90;;;;;;4133517;28;20044;-76
2021/07/20 07:33:57;;;;;;;15.32;8.85;;;20.00;99.90;;;;;;4111795;28;20626;-76
2021/07/20 07:35:59;;;;;;;15.48;8.00;;;20.10;99.90;;;;;;4126603;28;20101;-76
2021/07/20 07:38:00;;;;;;;13.02;7.60;;;20.10;99.90;;;;;;4116466;28;20054;-75
2021/07/20 07:40:03;;;;;;;13.02;7.90;;;20.10;99.90;;;;;;4131248;28;20041;-76
2021/07/20 07:42:06;;;;;;;11.48;6.95;;;20.00;99.90;;;;;;4114381;28;20093;-75
2021/07/20 07:44:10;;;;;;;11.10;7.38;;;20.00;99.90;;;;;;4131256;28;20034;-76
2021/07/20 07:46:12;;;;;;;12.98;7.55;;;20.00;99.90;;;;;;4129976;28;20038;-74
2021/07/20 07:48:14;;;;;;;16.27;9.40;;;20.00;99.90;;;;;;4130779;28;20033;-75
2021/07/20 07:50:15;;;;;;;13.00;8.70;;;20.00;99.90;;;;;;4115894;28;20506;-75
2021/07/20 07:52:16;;;;;;;13.77;8.32;;;19.90;99.90;;;;;;4128608;28;20026;-75
2021/07/20 07:54:17;;;;;;;15.68;8.48;;;19.90;99.90;;;;;;4115116;28;20038;-75
2021/07/20 07:56:18;;;;;;;14.32;8.75;;;20.00;99.90;;;;;;4129432;28;20078;-75
2021/07/20 07:58:19;;;;;;;14.05;8.18;;;20.00;99.90;;;;;;4131784;28;20406;-75
2021/07/20 08:00:20;;;;;;;11.93;8.10;;;20.10;99.90;;;;;;4126095;28;20602;-75
2021/07/20 08:02:28;;;;;;;13.73;8.43;;;20.10;99.90;;;;;;4129958;28;20636;-75
2021/07/20 08:04:30;;;;;;;14.45;8.48;;;20.00;99.90;;;;;;4129982;28;20037;-75
2021/07/20 08:06:31;;;;;;;17.15;8.77;;;20.00;99.90;;;;;;4131378;28;20050;-75
2021/07/20 08:08:35;;;;;;;11.60;7.35;;;20.00;99.90;;;;;;4114554;28;20031;-75
2021/07/20 08:10:36;;;;;;;11.95;7.53;;;20.00;99.90;;;;;;4125182;28;20413;-75
2021/07/20 08:12:38;;;;;;;12.65;7.70;;;20.00;99.90;;;;;;4114612;28;20188;-75
2021/07/20 08:14:39;;;;;;;12.18;7.70;;;20.10;99.90;;;;;;4127953;28;20465;-74
2021/07/20 08:16:44;;;;;;;12.10;7.32;;;20.10;99.90;;;;;;4114859;28;20027;-75
2021/07/20 08:18:45;;;;;;;11.38;7.38;;;20.20;99.90;;;;;;4130564;28;20041;-75
2021/07/20 08:20:47;;;;;;;11.40;7.28;;;20.20;99.90;;;;;;4131375;28;20034;-75
2021/07/20 08:22:48;;;;;;;14.18;7.82;;;20.20;99.90;;;;;;4131586;28;20084;-75
2021/07/20 08:25:14;;;;;;;10.90;7.63;;;20.30;99.90;;;;;;4109809;28;20046;-75
2021/07/20 08:27:40;;;;;;;12.30;7.10;;;20.30;99.90;;;;;;4100571;28;20038;-75
2021/07/20 08:29:44;;;;;;;15.70;8.43;;;20.30;99.90;;;;;;4111524;28;20133;-75
2021/07/20 08:31:51;;;;;;;11.63;7.38;;;20.30;99.90;;;;;;4114262;28;20030;-75
2021/07/20 08:33:56;;;;;;;13.30;7.20;;;20.40;99.90;;;;;;4129706;28;20170;-75
2021/07/20 08:36:01;;;;;;;10.75;7.50;;;20.40;99.90;;;;;;4128565;28;20417;-75
2021/07/20 08:38:06;;;;;;;7.88;6.13;;;20.40;99.90;;;;;;4130493;28;20053;-75
2021/07/20 08:40:51;;;;;;;11.43;6.93;;;20.50;99.90;;;;;;4110900;28;20046;-75
2021/07/20 08:43:05;;;;;;;12.45;6.97;;;20.60;99.90;;;;;;4127791;28;20080;-75
2021/07/20 08:45:19;;;;;;;10.90;6.88;;;20.50;99.90;;;;;;4126769;28;20073;-74
2021/07/20 08:47:39;;;;;;;10.45;7.20;;;20.60;99.90;;;;;;4122287;28;20035;-74
2021/07/20 08:50:20;;;;;;;10.23;6.93;;;20.60;99.90;;;;;;4132111;28;20119;-74
2021/07/20 08:52:32;;;;;;;12.15;7.13;;;20.60;99.90;;;;;;4117218;28;20093;-75
2021/07/20 08:54:53;;;;;;;10.98;7.05;;;20.60;99.90;;;;;;4105011;28;20579;-75
2021/07/20 08:56:59;;;;;;;12.73;7.85;;;20.60;99.90;;;;;;4121621;28;20129;-75
2021/07/20 08:59:05;;;;;;;12.00;7.90;;;20.70;99.90;;;;;;4113174;28;20047;-74
2021/07/20 09:01:22;;;;;;;12.77;8.07;;;20.70;99.90;;;;;;4129806;28;20069;-75
2021/07/20 09:03:34;;;;;;;10.70;7.50;;;20.70;99.90;;;;;;4112473;28;20408;-75
2021/07/20 09:05:48;;;;;;;8.45;6.18;;;20.70;99.90;;;;;;4111901;28;20042;-75
2021/07/20 09:08:15;;;;;;;8.50;6.43;;;20.80;99.90;;;;;;4131940;28;20038;-74
2021/07/20 09:10:18;;;;;;;12.40;7.28;;;20.80;99.90;;;;;;4133962;28;20434;-75
2021/07/20 09:12:26;;;;;;;11.57;7.10;;;20.90;99.90;;;;;;4126518;28;20041;-75
2021/07/20 09:14:34;;;;;;;10.18;6.35;;;21.00;99.90;;;;;;4119773;28;20089;-74
2021/07/20 09:16:51;;;;;;;10.18;6.55;;;21.10;99.90;;;;;;4130005;28;20052;-75
2021/07/20 09:18:59;;;;;;;10.02;6.55;;;21.20;99.90;;;;;;4116499;28;20031;-75
2021/07/20 09:21:05;;;;;;;10.52;6.88;;;21.30;99.90;;;;;;4114195;28;20033;-75
2021/07/20 09:23:17;;;;;;;12.85;6.93;;;21.30;99.90;;;;;;4116308;28;20042;-74
2021/07/20 09:25:41;;;;;;;8.77;6.43;;;21.40;99.90;;;;;;4129958;28;20040;-74
2021/07/20 09:27:56;;;;;;;10.63;7.18;;;21.50;99.90;;;;;;4110754;28;20125;-74
2021/07/20 09:30:02;;;;;;;12.40;7.25;;;21.60;99.90;;;;;;4128756;28;20092;-75
2021/07/20 09:32:13;;;;;;;11.20;6.55;;;21.70;99.90;;;;;;4111838;28;20757;-74
2021/07/20 09:34:21;;;;;;;10.75;7.13;;;21.70;99.90;;;;;;4112193;28;20120;-74
2021/07/20 09:36:33;;;;;;;8.82;6.22;;;21.90;99.90;;;;;;4133591;28;20103;-74
2021/07/20 09:38:43;;;;;;;9.82;6.57;;;22.00;99.90;;;;;;4129454;28;20064;-75
2021/07/20 09:40:48;;;;;;;13.38;8.35;;;22.20;99.90;;;;;;4129909;28;20049;-74
2021/07/20 09:43:40;;;;;;;12.52;8.52;;;22.20;99.90;;;;;;4129434;28;20030;-75
2021/07/20 09:45:48;;;;;;;11.68;8.23;;;22.20;99.90;;;;;;4084028;28;20108;-75
2021/07/20 09:48:03;;;;;;;10.73;7.00;;;22.20;99.90;;;;;;4132538;28;20026;-74
2021/07/20 09:50:07;;;;;;;9.43;6.53;;;22.20;99.90;;;;;;4130623;28;20057;-74
2021/07/20 09:52:13;;;;;;;11.05;7.88;;;22.20;99.90;;;;;;4112456;28;20294;-74
2021/07/20 09:54:42;;;;;;;8.70;6.03;;;22.20;99.90;;;;;;4127426;28;20516;-75
2021/07/20 09:57:14;;;;;;;11.55;6.72;;;22.20;99.90;;;;;;4106206;28;20038;-75
2021/07/20 09:59:52;;;;;;;10.48;7.03;;;22.30;99.90;;;;;;4108808;28;20129;-75
2021/07/20 10:01:58;;;;;;;10.27;7.28;;;22.20;99.90;;;;;;4110561;28;20333;-75
2021/07/20 10:04:08;;;;;;;10.30;7.28;;;22.20;99.90;;;;;;4128002;28;20117;-75
2021/07/20 10:06:20;;;;;;;11.57;7.28;;;22.20;99.90;;;;;;4129739;28;20226;-75
2021/07/20 10:08:31;;;;;;;12.40;6.85;;;22.20;99.90;;;;;;4131586;28;20099;-75
2021/07/20 10:10:42;;;;;;;9.90;6.75;;;22.20;99.90;;;;;;4114769;28;20050;-75
2021/07/20 10:13:03;;;;;;;11.20;7.22;;;22.20;99.90;;;;;;4131089;28;20038;-75
2021/07/20 10:15:09;;;;;;;12.32;7.43;;;22.20;99.90;;;;;;4115799;28;20703;-75
2021/07/20 10:17:15;;;;;;;12.15;7.93;;;22.20;99.90;;;;;;4134889;28;20041;-75
2021/07/20 10:19:23;;;;;;;11.65;7.63;;;22.20;99.90;;;;;;4131621;28;20483;-74
2021/07/20 10:21:30;;;;;;;18.23;8.05;;;22.20;99.90;;;;;;4136115;28;20480;-75
2021/07/20 10:23:54;;;;;;;12.27;7.70;;;22.20;99.90;;;;;;4129882;28;20166;-75
2021/07/20 10:26:00;;;;;;;10.07;7.60;;;22.20;99.90;;;;;;4111430;28;20117;-74
2021/07/20 10:28:11;;;;;;;10.88;7.25;;;22.10;99.40;;;;;;4130537;28;20137;-75
2021/07/20 10:30:14;;;;;;;13.20;6.93;;;22.20;99.90;;;;;;4097596;28;20114;-75
2021/07/20 10:32:24;;;;;;;;;;;22.20;99.50;;;;;;4131370;28;20137;-75
2021/07/20 10:34:27;;;;;;;10.82;6.63;;;22.30;99.90;;;;;;4132650;28;20011;-75
2021/07/20 10:36:50;;;;;;;11.43;7.38;;;22.30;99.90;;;;;;4131507;28;20061;-75
2021/07/20 10:38:57;;;;;;;9.57;6.43;;;22.40;98.90;;;;;;4113091;28;20502;-74
2021/07/20 10:41:01;;;;;;;11.52;6.82;;;22.40;99.10;;;;;;4112861;28;20042;-75
2021/07/20 10:43:21;;;;;;;10.45;6.68;;;22.50;97.90;;;;;;4134216;28;20066;-75